sensor_id;sensor_type;location;lat;lon;timestamp;P1;durP1;ratioP1;P2;durP2;ratioP2
8622;SDS011;4349;47.552;8.904;2023-05-07T00:00:26;3.77;;;3.07;;
8622;SDS011;4349;47.552;8.904;2023-05-07T00:02:53;3.13;;;3.03;;
8622;SDS011;4349;47.552;8.904;2023-05-07T00:05:21;3.10;;;2.87;;
8622;SDS011;4349;47.552;8.904;2023-05-07T00:07:48;2.77;;;2.57;;
8622;SDS011;4349;47.552;8.904;2023-05-07T00:10:16;3.17;;;3.07;;
8622;SDS011;4349;47.552;8.904;2023-05-07T00:12:43;3.07;;;2.87;;
8622;SDS011;4349;47.552;8.904;2023-05-07T00:15:11;3.20;;;3.00;;
8622;SDS011;4349;47.552;8.904;2023-05-07T00:17:40;3.10;;;3.00;;
8622;SDS011;4349;47.552;8.904;2023-05-07T00:20:08;3.40;;;3.00;;
8622;SDS011;4349;47.552;8.904;2023-05-07T00:22:36;2.70;;;2.60;;
8622;SDS011;4349;47.552;8.904;2023-05-07T00:25:04;3.70;;;3.40;;
8622;SDS011;4349;47.552;8.904;2023-05-07T00:27:31;3.20;;;3.00;;
8622;SDS011;4349;47.552;8.904;2023-05-07T00:29:59;3.10;;;3.00;;
8622;SDS011;4349;47.552;8.904;2023-05-07T00:32:26;3.10;;;2.90;;
8622;SDS011;4349;47.552;8.904;2023-05-07T00:34:55;3.23;;;3.13;;
8622;SDS011;4349;47.552;8.904;2023-05-07T00:37:23;2.60;;;2.50;;
8622;SDS011;4349;47.552;8.904;2023-05-07T00:39:50;3.00;;;2.80;;
8622;SDS011;4349;47.552;8.904;2023-05-07T00:42:17;2.80;;;2.70;;
8622;SDS011;4349;47.552;8.904;2023-05-07T00:44:45;4.47;;;3.30;;
8622;SDS011;4349;47.552;8.904;2023-05-07T00:47:13;3.00;;;2.80;;
8622;SDS011;4349;47.552;8.904;2023-05-07T00:49:41;2.60;;;2.50;;
8622;SDS011;4349;47.552;8.904;2023-05-07T00:52:11;2.60;;;2.50;;
8622;SDS011;4349;47.552;8.904;2023-05-07T00:54:38;2.47;;;2.43;;
8622;SDS011;4349;47.552;8.904;2023-05-07T00:57:07;2.70;;;2.57;;
8622;SDS011;4349;47.552;8.904;2023-05-07T00:59:36;2.80;;;2.70;;
8622;SDS011;4349;47.552;8.904;2023-05-07T01:02:04;2.57;;;2.47;;
8622;SDS011;4349;47.552;8.904;2023-05-07T01:04:31;2.33;;;2.23;;
8622;SDS011;4349;47.552;8.904;2023-05-07T01:06:59;2.37;;;2.27;;
8622;SDS011;4349;47.552;8.904;2023-05-07T01:09:29;2.40;;;2.30;;
8622;SDS011;4349;47.552;8.904;2023-05-07T01:11:56;2.40;;;2.40;;
8622;SDS011;4349;47.552;8.904;2023-05-07T01:14:24;2.60;;;2.33;;
8622;SDS011;4349;47.552;8.904;2023-05-07T01:16:52;2.63;;;2.47;;
8622;SDS011;4349;47.552;8.904;2023-05-07T01:19:22;2.63;;;2.53;;
8622;SDS011;4349;47.552;8.904;2023-05-07T01:21:49;2.83;;;2.73;;
8622;SDS011;4349;47.552;8.904;2023-05-07T01:24:21;2.37;;;2.27;;
8622;SDS011;4349;47.552;8.904;2023-05-07T01:26:49;2.80;;;2.60;;
8622;SDS011;4349;47.552;8.904;2023-05-07T01:29:17;3.67;;;2.77;;
8622;SDS011;4349;47.552;8.904;2023-05-07T01:31:45;3.00;;;2.80;;
8622;SDS011;4349;47.552;8.904;2023-05-07T01:34:14;2.80;;;2.70;;
8622;SDS011;4349;47.552;8.904;2023-05-07T01:36:42;3.60;;;2.90;;
8622;SDS011;4349;47.552;8.904;2023-05-07T01:39:10;3.27;;;3.00;;
8622;SDS011;4349;47.552;8.904;2023-05-07T01:41:39;3.47;;;3.03;;
8622;SDS011;4349;47.552;8.904;2023-05-07T01:44:06;3.50;;;3.30;;
8622;SDS011;4349;47.552;8.904;2023-05-07T01:46:35;3.70;;;3.47;;
8622;SDS011;4349;47.552;8.904;2023-05-07T01:49:02;3.73;;;3.30;;
8622;SDS011;4349;47.552;8.904;2023-05-07T01:51:30;3.73;;;3.53;;
8622;SDS011;4349;47.552;8.904;2023-05-07T01:53:58;3.80;;;3.50;;
8622;SDS011;4349;47.552;8.904;2023-05-07T01:56:26;3.93;;;3.73;;
8622;SDS011;4349;47.552;8.904;2023-05-07T01:58:55;3.87;;;3.67;;
8622;SDS011;4349;47.552;8.904;2023-05-07T02:01:23;3.47;;;3.27;;
8622;SDS011;4349;47.552;8.904;2023-05-07T02:03:51;3.50;;;3.30;;
8622;SDS011;4349;47.552;8.904;2023-05-07T02:06:23;3.40;;;3.20;;
8622;SDS011;4349;47.552;8.904;2023-05-07T02:08:55;3.27;;;3.17;;
8622;SDS011;4349;47.552;8.904;2023-05-07T02:11:22;3.17;;;3.07;;
8622;SDS011;4349;47.552;8.904;2023-05-07T02:13:51;3.20;;;3.10;;
8622;SDS011;4349;47.552;8.904;2023-05-07T02:16:20;3.03;;;2.83;;
8622;SDS011;4349;47.552;8.904;2023-05-07T02:18:49;3.60;;;3.30;;
8622;SDS011;4349;47.552;8.904;2023-05-07T02:21:16;2.93;;;2.73;;
8622;SDS011;4349;47.552;8.904;2023-05-07T02:23:44;2.87;;;2.77;;
8622;SDS011;4349;47.552;8.904;2023-05-07T02:26:11;3.20;;;2.93;;
8622;SDS011;4349;47.552;8.904;2023-05-07T02:28:39;3.00;;;2.80;;
8622;SDS011;4349;47.552;8.904;2023-05-07T02:31:06;4.60;;;2.80;;
8622;SDS011;4349;47.552;8.904;2023-05-07T02:33:35;6.07;;;3.33;;
8622;SDS011;4349;47.552;8.904;2023-05-07T02:36:06;3.50;;;3.40;;
8622;SDS011;4349;47.552;8.904;2023-05-07T02:38:36;2.90;;;2.80;;
8622;SDS011;4349;47.552;8.904;2023-05-07T02:41:04;3.00;;;2.80;;
8622;SDS011;4349;47.552;8.904;2023-05-07T02:43:31;3.67;;;3.37;;
8622;SDS011;4349;47.552;8.904;2023-05-07T02:46:02;3.40;;;3.20;;
8622;SDS011;4349;47.552;8.904;2023-05-07T02:48:32;3.70;;;3.50;;
8622;SDS011;4349;47.552;8.904;2023-05-07T02:51:01;3.50;;;3.30;;
8622;SDS011;4349;47.552;8.904;2023-05-07T02:53:30;3.47;;;3.37;;
8622;SDS011;4349;47.552;8.904;2023-05-07T02:55:58;3.67;;;3.30;;
8622;SDS011;4349;47.552;8.904;2023-05-07T02:58:26;4.63;;;3.37;;
8622;SDS011;4349;47.552;8.904;2023-05-07T03:00:53;3.37;;;3.27;;
8622;SDS011;4349;47.552;8.904;2023-05-07T03:03:29;3.40;;;3.13;;
8622;SDS011;4349;47.552;8.904;2023-05-07T03:05:57;3.47;;;3.20;;
8622;SDS011;4349;47.552;8.904;2023-05-07T03:08:26;4.13;;;3.87;;
8622;SDS011;4349;47.552;8.904;2023-05-07T03:10:53;3.40;;;3.30;;
8622;SDS011;4349;47.552;8.904;2023-05-07T03:13:21;3.43;;;3.23;;
8622;SDS011;4349;47.552;8.904;2023-05-07T03:15:49;3.67;;;3.40;;
8622;SDS011;4349;47.552;8.904;2023-05-07T03:18:16;3.60;;;3.50;;
8622;SDS011;4349;47.552;8.904;2023-05-07T03:20:44;3.73;;;3.30;;
8622;SDS011;4349;47.552;8.904;2023-05-07T03:23:11;3.40;;;3.20;;
8622;SDS011;4349;47.552;8.904;2023-05-07T03:25:40;3.33;;;3.20;;
8622;SDS011;4349;47.552;8.904;2023-05-07T03:28:08;3.17;;;3.03;;
8622;SDS011;4349;47.552;8.904;2023-05-07T03:30:41;3.40;;;3.20;;
8622;SDS011;4349;47.552;8.904;2023-05-07T03:33:08;3.87;;;3.60;;
8622;SDS011;4349;47.552;8.904;2023-05-07T03:35:36;3.13;;;3.03;;
8622;SDS011;4349;47.552;8.904;2023-05-07T03:38:04;3.47;;;3.27;;
8622;SDS011;4349;47.552;8.904;2023-05-07T03:40:34;3.03;;;2.93;;
8622;SDS011;4349;47.552;8.904;2023-05-07T03:43:04;3.17;;;2.97;;
8622;SDS011;4349;47.552;8.904;2023-05-07T03:45:34;3.13;;;2.93;;
8622;SDS011;4349;47.552;8.904;2023-05-07T03:48:09;3.77;;;3.47;;
8622;SDS011;4349;47.552;8.904;2023-05-07T03:50:37;2.70;;;2.60;;
8622;SDS011;4349;47.552;8.904;2023-05-07T03:53:05;2.90;;;2.70;;
8622;SDS011;4349;47.552;8.904;2023-05-07T03:55:37;3.23;;;2.70;;
8622;SDS011;4349;47.552;8.904;2023-05-07T03:58:06;2.80;;;2.70;;
8622;SDS011;4349;47.552;8.904;2023-05-07T04:00:33;2.47;;;2.37;;
8622;SDS011;4349;47.552;8.904;2023-05-07T04:03:13;3.00;;;2.80;;
8622;SDS011;4349;47.552;8.904;2023-05-07T04:05:40;3.20;;;3.00;;
8622;SDS011;4349;47.552;8.904;2023-05-07T04:08:08;3.17;;;2.97;;
8622;SDS011;4349;47.552;8.904;2023-05-07T04:10:41;2.97;;;2.87;;
8622;SDS011;4349;47.552;8.904;2023-05-07T04:13:11;2.93;;;2.83;;
8622;SDS011;4349;47.552;8.904;2023-05-07T04:15:40;3.50;;;2.83;;
8622;SDS011;4349;47.552;8.904;2023-05-07T04:18:10;3.10;;;2.90;;
8622;SDS011;4349;47.552;8.904;2023-05-07T04:20:40;2.90;;;2.80;;
8622;SDS011;4349;47.552;8.904;2023-05-07T04:23:11;3.53;;;3.23;;
8622;SDS011;4349;47.552;8.904;2023-05-07T04:25:39;3.10;;;2.90;;
8622;SDS011;4349;47.552;8.904;2023-05-07T04:28:24;2.87;;;2.77;;
8622;SDS011;4349;47.552;8.904;2023-05-07T04:30:52;3.00;;;2.90;;
8622;SDS011;4349;47.552;8.904;2023-05-07T04:33:20;3.23;;;3.03;;
8622;SDS011;4349;47.552;8.904;2023-05-07T04:35:49;3.23;;;3.00;;
8622;SDS011;4349;47.552;8.904;2023-05-07T04:38:16;3.70;;;3.40;;
8622;SDS011;4349;47.552;8.904;2023-05-07T04:40:45;3.60;;;3.40;;
8622;SDS011;4349;47.552;8.904;2023-05-07T04:43:17;3.40;;;3.23;;
8622;SDS011;4349;47.552;8.904;2023-05-07T04:45:50;3.40;;;3.20;;
8622;SDS011;4349;47.552;8.904;2023-05-07T04:48:19;3.30;;;2.97;;
8622;SDS011;4349;47.552;8.904;2023-05-07T04:50:49;3.03;;;2.93;;
8622;SDS011;4349;47.552;8.904;2023-05-07T04:53:17;3.73;;;3.53;;
8622;SDS011;4349;47.552;8.904;2023-05-07T04:55:46;3.17;;;3.07;;
8622;SDS011;4349;47.552;8.904;2023-05-07T04:58:14;3.33;;;3.13;;
8622;SDS011;4349;47.552;8.904;2023-05-07T05:00:43;3.30;;;3.20;;
8622;SDS011;4349;47.552;8.904;2023-05-07T05:03:11;3.77;;;3.47;;
8622;SDS011;4349;47.552;8.904;2023-05-07T05:05:39;3.20;;;3.00;;
8622;SDS011;4349;47.552;8.904;2023-05-07T05:08:06;3.73;;;3.43;;
8622;SDS011;4349;47.552;8.904;2023-05-07T05:10:37;3.10;;;3.00;;
8622;SDS011;4349;47.552;8.904;2023-05-07T05:13:05;3.77;;;3.57;;
8622;SDS011;4349;47.552;8.904;2023-05-07T05:15:33;3.50;;;3.30;;
8622;SDS011;4349;47.552;8.904;2023-05-07T05:18:02;3.50;;;3.40;;
8622;SDS011;4349;47.552;8.904;2023-05-07T05:20:31;3.03;;;2.90;;
8622;SDS011;4349;47.552;8.904;2023-05-07T05:22:58;3.40;;;3.30;;
8622;SDS011;4349;47.552;8.904;2023-05-07T05:25:26;3.70;;;3.40;;
8622;SDS011;4349;47.552;8.904;2023-05-07T05:27:55;3.93;;;3.73;;
8622;SDS011;4349;47.552;8.904;2023-05-07T05:30:23;3.80;;;3.60;;
8622;SDS011;4349;47.552;8.904;2023-05-07T05:32:50;3.70;;;3.50;;
8622;SDS011;4349;47.552;8.904;2023-05-07T05:35:18;3.63;;;3.33;;
8622;SDS011;4349;47.552;8.904;2023-05-07T05:37:47;3.80;;;3.50;;
8622;SDS011;4349;47.552;8.904;2023-05-07T05:40:17;3.70;;;3.40;;
8622;SDS011;4349;47.552;8.904;2023-05-07T05:42:44;3.67;;;3.37;;
8622;SDS011;4349;47.552;8.904;2023-05-07T05:45:13;3.63;;;3.50;;
8622;SDS011;4349;47.552;8.904;2023-05-07T05:47:41;3.53;;;3.33;;
8622;SDS011;4349;47.552;8.904;2023-05-07T05:50:09;3.60;;;3.50;;
8622;SDS011;4349;47.552;8.904;2023-05-07T05:52:36;3.80;;;3.50;;
8622;SDS011;4349;47.552;8.904;2023-05-07T05:55:06;3.10;;;3.00;;
8622;SDS011;4349;47.552;8.904;2023-05-07T05:57:35;3.27;;;3.17;;
8622;SDS011;4349;47.552;8.904;2023-05-07T06:00:02;3.13;;;3.03;;
8622;SDS011;4349;47.552;8.904;2023-05-07T06:02:40;6.83;;;6.30;;
8622;SDS011;4349;47.552;8.904;2023-05-07T06:05:09;5.43;;;4.93;;
8622;SDS011;4349;47.552;8.904;2023-05-07T06:07:37;4.27;;;3.93;;
8622;SDS011;4349;47.552;8.904;2023-05-07T06:10:07;4.43;;;4.23;;
8622;SDS011;4349;47.552;8.904;2023-05-07T06:12:35;4.07;;;3.87;;
8622;SDS011;4349;47.552;8.904;2023-05-07T06:15:02;4.10;;;3.70;;
8622;SDS011;4349;47.552;8.904;2023-05-07T06:17:30;4.00;;;3.80;;
8622;SDS011;4349;47.552;8.904;2023-05-07T06:19:58;3.60;;;3.50;;
8622;SDS011;4349;47.552;8.904;2023-05-07T06:22:26;4.10;;;3.77;;
8622;SDS011;4349;47.552;8.904;2023-05-07T06:24:54;4.17;;;3.90;;
8622;SDS011;4349;47.552;8.904;2023-05-07T06:27:23;3.93;;;3.63;;
8622;SDS011;4349;47.552;8.904;2023-05-07T06:29:51;4.47;;;4.17;;
8622;SDS011;4349;47.552;8.904;2023-05-07T06:32:19;4.20;;;3.90;;
8622;SDS011;4349;47.552;8.904;2023-05-07T06:34:46;5.80;;;4.10;;
8622;SDS011;4349;47.552;8.904;2023-05-07T06:37:14;4.17;;;3.97;;
8622;SDS011;4349;47.552;8.904;2023-05-07T06:39:54;4.10;;;3.90;;
8622;SDS011;4349;47.552;8.904;2023-05-07T06:42:27;4.33;;;4.13;;
8622;SDS011;4349;47.552;8.904;2023-05-07T06:44:58;4.83;;;4.40;;
8622;SDS011;4349;47.552;8.904;2023-05-07T06:47:29;4.33;;;4.07;;
8622;SDS011;4349;47.552;8.904;2023-05-07T06:49:56;4.73;;;4.40;;
8622;SDS011;4349;47.552;8.904;2023-05-07T06:52:28;5.00;;;4.60;;
8622;SDS011;4349;47.552;8.904;2023-05-07T06:54:56;4.50;;;4.13;;
8622;SDS011;4349;47.552;8.904;2023-05-07T06:57:25;4.47;;;4.27;;
8622;SDS011;4349;47.552;8.904;2023-05-07T06:59:54;4.50;;;4.30;;
8622;SDS011;4349;47.552;8.904;2023-05-07T07:02:21;4.93;;;4.53;;
8622;SDS011;4349;47.552;8.904;2023-05-07T07:04:49;5.03;;;4.53;;
8622;SDS011;4349;47.552;8.904;2023-05-07T07:07:16;5.10;;;4.70;;
8622;SDS011;4349;47.552;8.904;2023-05-07T07:09:46;4.47;;;4.17;;
8622;SDS011;4349;47.552;8.904;2023-05-07T07:12:16;4.83;;;4.30;;
8622;SDS011;4349;47.552;8.904;2023-05-07T07:14:43;5.17;;;4.80;;
8622;SDS011;4349;47.552;8.904;2023-05-07T07:17:13;4.87;;;4.53;;
8622;SDS011;4349;47.552;8.904;2023-05-07T07:19:40;4.93;;;4.70;;
8622;SDS011;4349;47.552;8.904;2023-05-07T07:22:08;5.07;;;4.53;;
8622;SDS011;4349;47.552;8.904;2023-05-07T07:24:37;4.10;;;3.90;;
8622;SDS011;4349;47.552;8.904;2023-05-07T07:27:06;4.67;;;4.23;;
8622;SDS011;4349;47.552;8.904;2023-05-07T07:29:34;4.67;;;4.47;;
8622;SDS011;4349;47.552;8.904;2023-05-07T07:32:02;4.87;;;4.60;;
8622;SDS011;4349;47.552;8.904;2023-05-07T07:34:32;5.20;;;4.80;;
8622;SDS011;4349;47.552;8.904;2023-05-07T07:37:00;5.50;;;4.97;;
8622;SDS011;4349;47.552;8.904;2023-05-07T07:39:32;5.30;;;4.90;;
8622;SDS011;4349;47.552;8.904;2023-05-07T07:41:59;5.03;;;4.63;;
8622;SDS011;4349;47.552;8.904;2023-05-07T07:44:28;4.77;;;4.40;;
8622;SDS011;4349;47.552;8.904;2023-05-07T07:47:00;5.10;;;4.80;;
8622;SDS011;4349;47.552;8.904;2023-05-07T07:49:28;4.97;;;4.67;;
8622;SDS011;4349;47.552;8.904;2023-05-07T07:52:00;4.97;;;4.50;;
8622;SDS011;4349;47.552;8.904;2023-05-07T07:54:28;5.00;;;4.70;;
8622;SDS011;4349;47.552;8.904;2023-05-07T07:56:57;4.63;;;4.40;;
8622;SDS011;4349;47.552;8.904;2023-05-07T07:59:24;5.40;;;5.00;;
8622;SDS011;4349;47.552;8.904;2023-05-07T08:01:51;5.20;;;4.90;;
8622;SDS011;4349;47.552;8.904;2023-05-07T08:04:23;5.03;;;4.73;;
8622;SDS011;4349;47.552;8.904;2023-05-07T08:06:51;5.10;;;4.80;;
8622;SDS011;4349;47.552;8.904;2023-05-07T08:09:21;4.73;;;4.37;;
8622;SDS011;4349;47.552;8.904;2023-05-07T08:11:50;3.57;;;3.33;;
8622;SDS011;4349;47.552;8.904;2023-05-07T08:14:17;3.40;;;3.30;;
8622;SDS011;4349;47.552;8.904;2023-05-07T08:16:47;2.20;;;2.10;;
8622;SDS011;4349;47.552;8.904;2023-05-07T08:19:14;2.87;;;2.67;;
8622;SDS011;4349;47.552;8.904;2023-05-07T08:21:42;2.30;;;2.20;;
8622;SDS011;4349;47.552;8.904;2023-05-07T08:24:11;2.00;;;1.90;;
8622;SDS011;4349;47.552;8.904;2023-05-07T08:26:40;2.13;;;2.03;;
8622;SDS011;4349;47.552;8.904;2023-05-07T08:29:09;2.20;;;2.20;;
8622;SDS011;4349;47.552;8.904;2023-05-07T08:31:37;2.30;;;2.20;;
8622;SDS011;4349;47.552;8.904;2023-05-07T08:34:05;2.50;;;2.30;;
8622;SDS011;4349;47.552;8.904;2023-05-07T08:36:38;2.10;;;2.00;;
8622;SDS011;4349;47.552;8.904;2023-05-07T08:39:08;1.77;;;1.77;;
8622;SDS011;4349;47.552;8.904;2023-05-07T08:41:36;3.07;;;2.50;;
8622;SDS011;4349;47.552;8.904;2023-05-07T08:44:05;2.50;;;2.30;;
8622;SDS011;4349;47.552;8.904;2023-05-07T08:46:33;2.83;;;2.73;;
8622;SDS011;4349;47.552;8.904;2023-05-07T08:49:01;2.30;;;2.20;;
8622;SDS011;4349;47.552;8.904;2023-05-07T08:51:29;2.30;;;2.20;;
8622;SDS011;4349;47.552;8.904;2023-05-07T08:53:57;2.60;;;2.40;;
8622;SDS011;4349;47.552;8.904;2023-05-07T08:56:29;2.50;;;2.03;;
8622;SDS011;4349;47.552;8.904;2023-05-07T08:58:56;3.03;;;2.30;;
8622;SDS011;4349;47.552;8.904;2023-05-07T09:01:27;2.07;;;1.97;;
8622;SDS011;4349;47.552;8.904;2023-05-07T09:03:56;2.20;;;2.10;;
8622;SDS011;4349;47.552;8.904;2023-05-07T09:06:25;2.30;;;2.23;;
8622;SDS011;4349;47.552;8.904;2023-05-07T09:08:54;2.10;;;2.00;;
8622;SDS011;4349;47.552;8.904;2023-05-07T09:11:25;2.40;;;2.20;;
8622;SDS011;4349;47.552;8.904;2023-05-07T09:13:55;2.17;;;2.07;;
8622;SDS011;4349;47.552;8.904;2023-05-07T09:16:24;2.30;;;2.20;;
8622;SDS011;4349;47.552;8.904;2023-05-07T09:18:54;2.40;;;2.20;;
8622;SDS011;4349;47.552;8.904;2023-05-07T09:21:22;3.80;;;2.00;;
8622;SDS011;4349;47.552;8.904;2023-05-07T09:23:53;2.30;;;2.20;;
8622;SDS011;4349;47.552;8.904;2023-05-07T09:26:27;2.47;;;2.00;;
8622;SDS011;4349;47.552;8.904;2023-05-07T09:28:54;2.00;;;2.00;;
8622;SDS011;4349;47.552;8.904;2023-05-07T09:31:22;2.27;;;2.07;;
8622;SDS011;4349;47.552;8.904;2023-05-07T09:33:54;2.77;;;2.57;;
8622;SDS011;4349;47.552;8.904;2023-05-07T09:36:24;2.13;;;2.03;;
8622;SDS011;4349;47.552;8.904;2023-05-07T09:38:52;2.10;;;1.93;;
8622;SDS011;4349;47.552;8.904;2023-05-07T09:41:20;2.30;;;2.20;;
8622;SDS011;4349;47.552;8.904;2023-05-07T09:44:09;2.50;;;2.33;;
8622;SDS011;4349;47.552;8.904;2023-05-07T09:46:42;2.30;;;2.20;;
8622;SDS011;4349;47.552;8.904;2023-05-07T09:49:20;2.73;;;2.10;;
8622;SDS011;4349;47.552;8.904;2023-05-07T09:51:50;2.20;;;2.10;;
8622;SDS011;4349;47.552;8.904;2023-05-07T09:54:21;2.03;;;2.03;;
8622;SDS011;4349;47.552;8.904;2023-05-07T09:56:52;4.20;;;2.50;;
8622;SDS011;4349;47.552;8.904;2023-05-07T09:59:23;4.93;;;2.63;;
8622;SDS011;4349;47.552;8.904;2023-05-07T10:01:51;2.67;;;2.57;;
8622;SDS011;4349;47.552;8.904;2023-05-07T10:04:20;2.40;;;2.30;;
8622;SDS011;4349;47.552;8.904;2023-05-07T10:06:49;3.83;;;2.53;;
8622;SDS011;4349;47.552;8.904;2023-05-07T10:09:16;2.67;;;2.47;;
8622;SDS011;4349;47.552;8.904;2023-05-07T10:11:44;3.80;;;2.70;;
8622;SDS011;4349;47.552;8.904;2023-05-07T10:14:12;2.40;;;2.20;;
8622;SDS011;4349;47.552;8.904;2023-05-07T10:16:42;2.60;;;2.40;;
8622;SDS011;4349;47.552;8.904;2023-05-07T10:19:13;2.50;;;2.30;;
8622;SDS011;4349;47.552;8.904;2023-05-07T10:21:48;2.17;;;2.17;;
8622;SDS011;4349;47.552;8.904;2023-05-07T10:24:19;2.47;;;2.37;;
8622;SDS011;4349;47.552;8.904;2023-05-07T10:26:48;2.40;;;2.30;;
8622;SDS011;4349;47.552;8.904;2023-05-07T10:29:18;2.40;;;2.20;;
8622;SDS011;4349;47.552;8.904;2023-05-07T10:31:55;2.40;;;2.30;;
8622;SDS011;4349;47.552;8.904;2023-05-07T10:34:25;2.07;;;2.07;;
8622;SDS011;4349;47.552;8.904;2023-05-07T10:36:55;2.37;;;2.17;;
8622;SDS011;4349;47.552;8.904;2023-05-07T10:39:23;4.30;;;2.43;;
8622;SDS011;4349;47.552;8.904;2023-05-07T10:41:51;4.40;;;4.10;;
8622;SDS011;4349;47.552;8.904;2023-05-07T10:44:25;6.63;;;6.20;;
8622;SDS011;4349;47.552;8.904;2023-05-07T10:47:05;2.70;;;2.60;;
8622;SDS011;4349;47.552;8.904;2023-05-07T10:49:37;2.70;;;2.50;;
8622;SDS011;4349;47.552;8.904;2023-05-07T10:52:12;3.77;;;3.57;;
8622;SDS011;4349;47.552;8.904;2023-05-07T10:54:45;2.67;;;2.50;;
8622;SDS011;4349;47.552;8.904;2023-05-07T10:57:33;2.73;;;2.50;;
8622;SDS011;4349;47.552;8.904;2023-05-07T11:03:09;2.57;;;2.47;;
8622;SDS011;4349;47.552;8.904;2023-05-07T11:05:44;2.67;;;2.47;;
8622;SDS011;4349;47.552;8.904;2023-05-07T11:08:22;2.63;;;2.47;;
8622;SDS011;4349;47.552;8.904;2023-05-07T11:10:56;2.70;;;2.50;;
8622;SDS011;4349;47.552;8.904;2023-05-07T11:13:48;4.23;;;2.63;;
8622;SDS011;4349;47.552;8.904;2023-05-07T11:16:39;2.50;;;2.40;;
8622;SDS011;4349;47.552;8.904;2023-05-07T11:22:04;2.70;;;2.50;;
8622;SDS011;4349;47.552;8.904;2023-05-07T11:24:41;3.27;;;2.37;;
8622;SDS011;4349;47.552;8.904;2023-05-07T11:27:11;2.60;;;2.50;;
8622;SDS011;4349;47.552;8.904;2023-05-07T11:29:38;2.43;;;2.33;;
8622;SDS011;4349;47.552;8.904;2023-05-07T11:32:10;2.53;;;2.40;;
8622;SDS011;4349;47.552;8.904;2023-05-07T11:34:45;2.70;;;2.50;;
8622;SDS011;4349;47.552;8.904;2023-05-07T11:37:16;2.50;;;2.40;;
8622;SDS011;4349;47.552;8.904;2023-05-07T11:39:58;2.90;;;2.50;;
8622;SDS011;4349;47.552;8.904;2023-05-07T11:42:30;5.05;;;2.50;;
8622;SDS011;4349;47.552;8.904;2023-05-07T11:44:58;2.30;;;2.20;;
8622;SDS011;4349;47.552;8.904;2023-05-07T11:47:25;2.60;;;2.50;;
8622;SDS011;4349;47.552;8.904;2023-05-07T11:49:53;2.50;;;2.40;;
8622;SDS011;4349;47.552;8.904;2023-05-07T11:52:22;2.60;;;2.50;;
8622;SDS011;4349;47.552;8.904;2023-05-07T11:54:49;5.03;;;3.33;;
8622;SDS011;4349;47.552;8.904;2023-05-07T11:57:18;2.30;;;2.20;;
8622;SDS011;4349;47.552;8.904;2023-05-07T11:59:46;3.07;;;2.60;;
8622;SDS011;4349;47.552;8.904;2023-05-07T12:02:14;2.40;;;2.30;;
8622;SDS011;4349;47.552;8.904;2023-05-07T12:04:42;3.10;;;2.60;;
8622;SDS011;4349;47.552;8.904;2023-05-07T12:07:12;2.63;;;2.53;;
8622;SDS011;4349;47.552;8.904;2023-05-07T12:09:40;2.60;;;2.50;;
8622;SDS011;4349;47.552;8.904;2023-05-07T12:12:08;2.87;;;2.53;;
8622;SDS011;4349;47.552;8.904;2023-05-07T12:14:38;2.60;;;2.50;;
8622;SDS011;4349;47.552;8.904;2023-05-07T12:17:06;2.50;;;2.40;;
8622;SDS011;4349;47.552;8.904;2023-05-07T12:19:34;2.80;;;2.70;;
8622;SDS011;4349;47.552;8.904;2023-05-07T12:22:02;2.87;;;2.73;;
8622;SDS011;4349;47.552;8.904;2023-05-07T12:24:41;2.80;;;2.70;;
8622;SDS011;4349;47.552;8.904;2023-05-07T12:27:09;2.75;;;2.55;;
8622;SDS011;4349;47.552;8.904;2023-05-07T12:29:36;2.70;;;2.60;;
8622;SDS011;4349;47.552;8.904;2023-05-07T12:32:06;2.70;;;2.60;;
8622;SDS011;4349;47.552;8.904;2023-05-07T12:34:39;2.80;;;2.70;;
8622;SDS011;4349;47.552;8.904;2023-05-07T12:37:11;4.47;;;2.95;;
8622;SDS011;4349;47.552;8.904;2023-05-07T12:39:43;2.80;;;2.70;;
8622;SDS011;4349;47.552;8.904;2023-05-07T12:42:14;2.97;;;2.78;;
8622;SDS011;4349;47.552;8.904;2023-05-07T12:44:43;3.00;;;2.80;;
8622;SDS011;4349;47.552;8.904;2023-05-07T12:47:14;2.97;;;2.78;;
8622;SDS011;4349;47.552;8.904;2023-05-07T12:49:41;2.95;;;2.72;;
8622;SDS011;4349;47.552;8.904;2023-05-07T12:52:09;2.80;;;2.70;;
8622;SDS011;4349;47.552;8.904;2023-05-07T12:54:38;4.35;;;2.60;;
8622;SDS011;4349;47.552;8.904;2023-05-07T12:57:06;2.78;;;2.58;;
8622;SDS011;4349;47.552;8.904;2023-05-07T12:59:35;3.42;;;3.20;;
8622;SDS011;4349;47.552;8.904;2023-05-07T13:02:03;3.38;;;3.15;;
8622;SDS011;4349;47.552;8.904;2023-05-07T13:04:32;3.55;;;3.35;;
8622;SDS011;4349;47.552;8.904;2023-05-07T13:06:59;3.45;;;3.25;;
8622;SDS011;4349;47.552;8.904;2023-05-07T13:09:27;3.38;;;3.00;;
8622;SDS011;4349;47.552;8.904;2023-05-07T13:11:55;2.97;;;2.88;;
8622;SDS011;4349;47.552;8.904;2023-05-07T13:14:22;2.88;;;2.78;;
8622;SDS011;4349;47.552;8.904;2023-05-07T13:16:49;3.53;;;3.30;;
8622;SDS011;4349;47.552;8.904;2023-05-07T13:19:17;3.22;;;3.13;;
8622;SDS011;4349;47.552;8.904;2023-05-07T13:21:46;3.35;;;3.20;;
8622;SDS011;4349;47.552;8.904;2023-05-07T13:24:13;3.53;;;3.25;;
8622;SDS011;4349;47.552;8.904;2023-05-07T13:26:40;3.38;;;3.15;;
8622;SDS011;4349;47.552;8.904;2023-05-07T13:29:11;3.05;;;2.85;;
8622;SDS011;4349;47.552;8.904;2023-05-07T13:31:38;2.70;;;2.60;;
8622;SDS011;4349;47.552;8.904;2023-05-07T13:34:08;4.75;;;4.35;;
8622;SDS011;4349;47.552;8.904;2023-05-07T13:36:36;3.17;;;2.88;;
8622;SDS011;4349;47.552;8.904;2023-05-07T13:39:07;3.00;;;2.90;;
8622;SDS011;4349;47.552;8.904;2023-05-07T13:41:35;3.10;;;3.00;;
8622;SDS011;4349;47.552;8.904;2023-05-07T13:44:02;2.90;;;2.80;;
8622;SDS011;4349;47.552;8.904;2023-05-07T13:46:30;3.00;;;2.85;;
8622;SDS011;4349;47.552;8.904;2023-05-07T13:48:57;3.08;;;2.88;;
8622;SDS011;4349;47.552;8.904;2023-05-07T13:51:25;3.03;;;2.83;;
8622;SDS011;4349;47.552;8.904;2023-05-07T13:53:53;3.30;;;3.08;;
8622;SDS011;4349;47.552;8.904;2023-05-07T13:56:22;3.22;;;3.00;;
8622;SDS011;4349;47.552;8.904;2023-05-07T13:58:49;2.53;;;2.42;;
8622;SDS011;4349;47.552;8.904;2023-05-07T14:01:25;3.15;;;2.90;;
8622;SDS011;4349;47.552;8.904;2023-05-07T14:03:53;2.88;;;2.78;;
8622;SDS011;4349;47.552;8.904;2023-05-07T14:06:20;3.20;;;3.10;;
8622;SDS011;4349;47.552;8.904;2023-05-07T14:08:48;4.65;;;2.83;;
8622;SDS011;4349;47.552;8.904;2023-05-07T14:11:16;2.83;;;2.72;;
8622;SDS011;4349;47.552;8.904;2023-05-07T14:13:44;3.08;;;2.88;;
8622;SDS011;4349;47.552;8.904;2023-05-07T14:16:12;2.80;;;2.70;;
8622;SDS011;4349;47.552;8.904;2023-05-07T14:18:40;3.00;;;2.80;;
8622;SDS011;4349;47.552;8.904;2023-05-07T14:21:07;2.80;;;2.70;;
8622;SDS011;4349;47.552;8.904;2023-05-07T14:23:35;2.90;;;2.70;;
8622;SDS011;4349;47.552;8.904;2023-05-07T14:26:03;2.78;;;2.50;;
8622;SDS011;4349;47.552;8.904;2023-05-07T14:28:30;3.35;;;3.15;;
8622;SDS011;4349;47.552;8.904;2023-05-07T14:30:59;2.73;;;2.60;;
8622;SDS011;4349;47.552;8.904;2023-05-07T14:33:27;2.65;;;2.55;;
8622;SDS011;4349;47.552;8.904;2023-05-07T14:35:54;2.60;;;2.50;;
8622;SDS011;4349;47.552;8.904;2023-05-07T14:38:22;2.47;;;2.40;;
8622;SDS011;4349;47.552;8.904;2023-05-07T14:40:49;2.80;;;2.60;;
8622;SDS011;4349;47.552;8.904;2023-05-07T14:43:16;2.50;;;2.30;;
8622;SDS011;4349;47.552;8.904;2023-05-07T14:45:44;2.03;;;2.00;;
8622;SDS011;4349;47.552;8.904;2023-05-07T14:48:14;2.42;;;2.20;;
8622;SDS011;4349;47.552;8.904;2023-05-07T14:50:41;2.13;;;2.13;;
8622;SDS011;4349;47.552;8.904;2023-05-07T14:53:09;2.60;;;2.50;;
8622;SDS011;4349;47.552;8.904;2023-05-07T14:55:36;2.60;;;2.50;;
8622;SDS011;4349;47.552;8.904;2023-05-07T14:58:04;2.40;;;2.30;;
8622;SDS011;4349;47.552;8.904;2023-05-07T15:00:31;2.70;;;2.60;;
8622;SDS011;4349;47.552;8.904;2023-05-07T15:03:03;2.33;;;2.23;;
8622;SDS011;4349;47.552;8.904;2023-05-07T15:05:33;2.40;;;2.30;;
8622;SDS011;4349;47.552;8.904;2023-05-07T15:08:00;2.72;;;2.20;;
8622;SDS011;4349;47.552;8.904;2023-05-07T15:10:28;2.40;;;2.30;;
8622;SDS011;4349;47.552;8.904;2023-05-07T15:12:55;2.40;;;2.30;;
8622;SDS011;4349;47.552;8.904;2023-05-07T15:15:23;2.30;;;2.20;;
8622;SDS011;4349;47.552;8.904;2023-05-07T15:17:52;2.30;;;2.20;;
8622;SDS011;4349;47.552;8.904;2023-05-07T15:20:20;2.70;;;2.60;;
8622;SDS011;4349;47.552;8.904;2023-05-07T15:22:49;3.50;;;2.47;;
8622;SDS011;4349;47.552;8.904;2023-05-07T15:25:16;2.40;;;2.30;;
8622;SDS011;4349;47.552;8.904;2023-05-07T15:27:43;2.80;;;2.37;;
8622;SDS011;4349;47.552;8.904;2023-05-07T15:30:11;3.00;;;2.80;;
8622;SDS011;4349;47.552;8.904;2023-05-07T15:32:40;2.47;;;2.40;;